sensor_id;sensor_type;location;lat;lon;timestamp;pressure;altitude;pressure_sealevel;temperature;humidity
31162;BME280;17796;49.296;-117.656;2023-01-30T00:03:34;97800;;;-4.94008;47.34071
31162;BME280;17796;49.296;-117.656;2023-01-30T00:18:41;97800;;;-5.52055;47.79826
31162;BME280;17796;49.296;-117.656;2023-01-30T00:33:45;97700;;;-6.67417;50.37305
31162;BME280;17796;49.296;-117.656;2023-01-30T00:48:49;97700;;;-6.76594;50.95492
31162;BME280;17796;49.296;-117.656;2023-01-30T01:03:53;97700;;;-7.23558;52.03607
31162;BME280;17796;49.296;-117.656;2023-01-30T01:18:56;97700;;;-6.9082;52.04881
31162;BME280;17796;49.296;-117.656;2023-01-30T01:34:01;97700;;;-7.25812;53.01401
31162;BME280;17796;49.296;-117.656;2023-01-30T01:49:06;97700;;;-8.26566;55.6358
31162;BME280;17796;49.296;-117.656;2023-01-30T02:04:15;97700;;;-8.11197;55.62701
31162;BME280;17796;49.296;-117.656;2023-01-30T02:19:22;97700;;;-7.48135;54.0044
31162;BME280;17796;49.296;-117.656;2023-01-30T02:34:37;97700;;;-9.02138;58.03568
31162;BME280;17796;49.296;-117.656;2023-01-30T02:49:50;97700;;;-8.75275;57.20012
31162;BME280;17796;49.296;-117.656;2023-01-30T03:05:16;97800;;;-9.2427;57.87322
31162;BME280;17796;49.296;-117.656;2023-01-30T03:20:30;97800;;;-8.55175;56.89293
31162;BME280;17796;49.296;-117.656;2023-01-30T03:35:39;97800;;;-9.02234;57.299
31162;BME280;17796;49.296;-117.656;2023-01-30T03:50:43;97800;;;-9.98667;61.61794
31162;BME280;17796;49.296;-117.656;2023-01-30T04:05:47;97800;;;-9.41067;58.59997
31162;BME280;17796;49.296;-117.656;2023-01-30T04:20:51;97800;;;-10.20925;59.91651
31162;BME280;17796;49.296;-117.656;2023-01-30T04:35:55;97800;;;-9.95428;59.18097
31162;BME280;17796;49.296;-117.656;2023-01-30T04:50:59;97800;;;-11.12722;62.54459
31162;BME280;17796;49.296;-117.656;2023-01-30T05:06:03;97800;;;-10.13845;60.11362
31162;BME280;17796;49.296;-117.656;2023-01-30T05:21:08;97900;;;-11.39108;62.8848
31162;BME280;17796;49.296;-117.656;2023-01-30T05:36:13;97800;;;-10.88145;61.25104
31162;BME280;17796;49.296;-117.656;2023-01-30T05:51:19;97800;;;-11.02847;60.87294
31162;BME280;17796;49.296;-117.656;2023-01-30T06:06:25;97900;;;-11.29931;62.65602
31162;BME280;17796;49.296;-117.656;2023-01-30T06:21:30;97900;;;-10.38167;59.0921
31162;BME280;17796;49.296;-117.656;2023-01-30T06:36:35;97900;;;-11.29328;61.83402
31162;BME280;17796;49.296;-117.656;2023-01-30T06:51:38;97900;;;-10.83382;60.68177
31162;BME280;17796;49.296;-117.656;2023-01-30T07:06:43;97900;;;-11.47871;62.67077
31162;BME280;17796;49.296;-117.656;2023-01-30T07:21:46;97900;;;-11.71781;64.85178
31162;BME280;17796;49.296;-117.656;2023-01-30T07:36:50;97900;;;-10.85891;61.92616
31162;BME280;17796;49.296;-117.656;2023-01-30T07:51:54;97900;;;-12.02008;62.49605
31162;BME280;17796;49.296;-117.656;2023-01-30T08:06:57;97900;;;-12.44651;64.9216
31162;BME280;17796;49.296;-117.656;2023-01-30T08:22:01;97900;;;-12.25283;64.03051
31162;BME280;17796;49.296;-117.656;2023-01-30T08:37:05;97900;;;-12.61226;64.76595
31162;BME280;17796;49.296;-117.656;2023-01-30T08:52:09;97900;;;-12.23631;63.43519
31162;BME280;17796;49.296;-117.656;2023-01-30T09:07:12;98000;;;-12.48334;63.18926
31162;BME280;17796;49.296;-117.656;2023-01-30T09:22:16;97900;;;-11.64255;60.36497
31162;BME280;17796;49.296;-117.656;2023-01-30T09:37:19;97900;;;-11.79623;60.78248
31162;BME280;17796;49.296;-117.656;2023-01-30T09:52:26;98000;;;-12.97264;63.79372
31162;BME280;17796;49.296;-117.656;2023-01-30T10:07:43;98000;;;-13.80421;67.46826
31162;BME280;17796;49.296;-117.656;2023-01-30T10:23:01;98000;;;-14.17093;67.88383
31162;BME280;17796;49.296;-117.656;2023-01-30T10:38:19;98000;;;-12.83579;62.77149
31162;BME280;17796;49.296;-117.656;2023-01-30T10:53:31;98000;;;-13.26697;64.07074
31162;BME280;17796;49.296;-117.656;2023-01-30T11:08:43;98000;;;-14.05123;66.71232
31162;BME280;17796;49.296;-117.656;2023-01-30T11:23:47;98000;;;-14.24587;67.5337
31162;BME280;17796;49.296;-117.656;2023-01-30T11:38:54;98000;;;-14.26809;67.10841
31162;BME280;17796;49.296;-117.656;2023-01-30T11:54:01;98000;;;-13.89248;66.50737
31162;BME280;17796;49.296;-117.656;2023-01-30T12:09:33;98000;;;-14.63196;66.78344
31162;BME280;17796;49.296;-117.656;2023-01-30T12:24:38;98000;;;-15.0679;68.00673
31162;BME280;17796;49.296;-117.656;2023-01-30T12:39:49;98000;;;-14.13791;64.58627
31162;BME280;17796;49.296;-117.656;2023-01-30T12:55:03;98000;;;-14.70308;66.11136
31162;BME280;17796;49.296;-117.656;2023-01-30T13:10:24;98000;;;-13.73404;63.50138
31162;BME280;17796;49.296;-117.656;2023-01-30T13:25:37;98000;;;-13.29745;62.04406
31162;BME280;17796;49.296;-117.656;2023-01-30T13:40:47;98000;;;-14.89263;66.02278
31162;BME280;17796;49.296;-117.656;2023-01-30T13:55:55;98000;;;-15.06187;66.31107
31162;BME280;17796;49.296;-117.656;2023-01-30T14:11:03;98100;;;-15.27841;67.82587
31162;BME280;17796;49.296;-117.656;2023-01-30T14:26:58;98100;;;-14.62593;65.81567
31162;BME280;17796;49.296;-117.656;2023-01-30T14:42:22;98100;;;-15.33651;66.98163
31162;BME280;17796;49.296;-117.656;2023-01-30T14:57:27;98100;;;-13.64958;61.93047
31162;BME280;17796;49.296;-117.656;2023-01-30T15:13:40;98100;;;-16.14806;68.81925
31162;BME280;17796;49.296;-117.656;2023-01-30T15:28:51;98100;;;-13.99154;62.39596
31162;BME280;17796;49.296;-117.656;2023-01-30T15:44:28;98100;;;-15.13458;65.49155
31162;BME280;17796;49.296;-117.656;2023-01-30T15:59:41;98100;;;-13.56131;61.846
31162;BME280;17796;49.296;-117.656;2023-01-30T16:14:44;98100;;;-13.52289;60.55212
31162;BME280;17796;49.296;-117.656;2023-01-30T16:29:49;98100;;;-13.45589;59.62074
31162;BME280;17796;49.296;-117.656;2023-01-30T16:45:00;98100;;;-12.972;58.93127
31162;BME280;17796;49.296;-117.656;2023-01-30T17:00:39;98100;;;-12.75419;60.52032
31162;BME280;17796;49.296;-117.656;2023-01-30T17:15:43;98100;;;-14.20078;65.297
31162;BME280;17796;49.296;-117.656;2023-01-30T17:30:47;98100;;;-12.18742;59.60104
31162;BME280;17796;49.296;-117.656;2023-01-30T17:45:51;98100;;;-9.48402;53.60402
31162;BME280;17796;49.296;-117.656;2023-01-30T18:00:55;98000;;;-10.06795;58.42382
31162;BME280;17796;49.296;-117.656;2023-01-30T18:15:59;98000;;;-8.11737;51.92597
31162;BME280;17796;49.296;-117.656;2023-01-30T18:31:03;98000;;;-9.52721;52.16084
31162;BME280;17796;49.296;-117.656;2023-01-30T18:46:08;98000;;;-9.53292;52.68771
31162;BME280;17796;49.296;-117.656;2023-01-30T19:01:14;98000;;;-9.65422;53.53205
31162;BME280;17796;49.296;-117.656;2023-01-30T19:16:20;98000;;;-8.27614;51.70391
31162;BME280;17796;49.296;-117.656;2023-01-30T19:31:24;98000;;;-8.36187;50.38399
31162;BME280;17796;49.296;-117.656;2023-01-30T19:46:28;98000;;;-9.26779;52.51577
31162;BME280;17796;49.296;-117.656;2023-01-30T20:01:32;97900;;;-7.16;49.98264
31162;BME280;17796;49.296;-117.656;2023-01-30T20:16:37;97900;;;-7.02695;48.14019
31162;BME280;17796;49.296;-117.656;2023-01-30T20:31:41;97800;;;-5.68535;46.66281
31162;BME280;17796;49.296;-117.656;2023-01-30T20:46:45;97800;;;-5.14426;46.13203
31162;BME280;17796;49.296;-117.656;2023-01-30T21:01:49;97800;;;-6.23597;45.3343
31162;BME280;17796;49.296;-117.656;2023-01-30T21:16:53;97800;;;-4.77845;42.61269
31162;BME280;17796;49.296;-117.656;2023-01-30T21:31:57;97700;;;-4.79051;42.08873
31162;BME280;17796;49.296;-117.656;2023-01-30T21:47:00;97700;;;-3.32408;40.48251
31162;BME280;17796;49.296;-117.656;2023-01-30T22:02:04;97700;;;-6.43506;39.31897
31162;BME280;17796;49.296;-117.656;2023-01-30T22:17:08;97700;;;-6.07529;41.51525
31162;BME280;17796;49.296;-117.656;2023-01-30T22:32:12;97700;;;-5.59168;37.99566
31162;BME280;17796;49.296;-117.656;2023-01-30T22:47:16;97700;;;-6.96122;40.74304
31162;BME280;17796;49.296;-117.656;2023-01-30T23:02:19;97600;;;-6.33504;39.98351
31162;BME280;17796;49.296;-117.656;2023-01-30T23:17:23;97600;;;-6.71926;39.53945
31162;BME280;17796;49.296;-117.656;2023-01-30T23:32:27;97600;;;-6.61987;41.14381
31162;BME280;17796;49.296;-117.656;2023-01-30T23:47:31;97600;;;-6.3163;40.33184
